Airfield :
LOGIN :

Register | Disclaimer

   EN    FR    IT 

 










Legend :    VFR   Marginal VFR   IFR   Intensive IFR   Very Intensive IFR
Visi :
Ceiling :
>= 8 km
>= 3000ft
5 to 8 km
1000 to 3000 ft
1500m to 5 km
500 to 1000 ft
800 to 1500m
200 to 500 ft
< 800m
< 200 ft
Symbols :   Thunderstorms  Fog  Heavy snow  Heavy precipitations  Wind > 20 kt
SIGMETs :     Misc.  Thunderstorms  Icing  Turbulence  Mountain Waves  Volcanic Ashes






- Airport Elevation : 102 ft
- IATA code : EXT


EGTE - Exeter

CURRENT METAR :
  • 131050Z 27016KT 240V300 9999 FEW025CB 08/02 Q0987

EXPIRED METARs :
  • 131020Z 27014G26KT 9999 FEW025CB 07/03 Q0987
  • 130950Z 27016KT 9999 9000W VCSH FEW025CB 07/02 Q0986
  • 130920Z 27016G27KT 9999 FEW025CB 08/03 Q0986
  • 130850Z 28017G29KT 9999 VCSH FEW025CB 08/03 Q0985
  • 130820Z 27017G28KT 9999 VCSH FEW030CB 07/02 Q0984

TAF TAF EGTE
Valid from the 13 at 09:00 until the 13 at 18:00 UTC


130823Z 1309/1318 28018G28KT 9999 SCT025
PROB30
TEMPO 1309/1315 7000 SHRA
BECMG 1311/1315 28012KT



MET'MAP, your aeronautical weather chart ! - Copyright ORBIFLY December 2007 - Disclaimer

ORBIFLY MET'MAP TEAM :

Programming & Development : Alexandra Zaïnal
Concept & original design : Baudouin d'Aumeries
Assistance for programming : Marc-Olivier Méhu
Technical & hardware support : Manuel Goepfert

Contact : metmap@orbifly.com




SOURCES & CREDITS :

   NOAA